createdAt,value
2023-03-17T00:00:54.957Z,990.68
2023-03-17T00:01:55.188Z,990.67
2023-03-17T00:02:54.926Z,990.65
2023-03-17T00:03:55.044Z,990.60
2023-03-17T00:04:54.900Z,990.63
2023-03-17T00:05:54.904Z,990.57
2023-03-17T00:06:54.873Z,990.60
2023-03-17T00:07:54.858Z,990.59
2023-03-17T00:08:54.889Z,990.59
2023-03-17T00:09:54.832Z,990.56
2023-03-17T00:10:54.815Z,990.55
2023-03-17T00:11:54.828Z,990.49
2023-03-17T00:12:54.787Z,990.52
2023-03-17T00:13:54.786Z,990.51
2023-03-17T00:14:54.764Z,990.49
2023-03-17T00:15:54.888Z,990.44
2023-03-17T00:16:54.749Z,990.40
2023-03-17T00:17:54.716Z,990.40
2023-03-17T00:18:54.711Z,990.43
2023-03-17T00:19:54.907Z,990.38
2023-03-17T00:20:54.698Z,990.37
2023-03-17T00:21:54.694Z,990.33
2023-03-17T00:22:54.658Z,990.39
2023-03-17T00:23:54.655Z,990.38
2023-03-17T00:24:54.629Z,990.32
2023-03-17T00:25:54.637Z,990.33
2023-03-17T00:26:54.807Z,990.31
2023-03-17T00:27:54.605Z,990.29
2023-03-17T00:28:54.615Z,990.30
2023-03-17T00:29:54.617Z,990.22
2023-03-17T00:30:54.756Z,990.22
2023-03-17T00:31:54.553Z,990.18
2023-03-17T00:32:54.667Z,990.14
2023-03-17T00:33:54.531Z,990.13
2023-03-17T00:34:54.505Z,990.10
2023-03-17T00:35:54.621Z,990.11
2023-03-17T00:36:54.502Z,990.12
2023-03-17T00:37:54.487Z,990.09
2023-03-17T00:38:54.497Z,990.20
2023-03-17T00:39:54.457Z,990.16
2023-03-17T00:40:54.430Z,990.16
2023-03-17T00:41:54.416Z,990.15
2023-03-17T00:42:54.417Z,990.16
2023-03-17T00:43:54.429Z,990.15
2023-03-17T00:44:54.378Z,990.17
2023-03-17T00:45:54.357Z,990.17
2023-03-17T00:46:54.419Z,990.14
2023-03-17T00:47:54.327Z,990.13
2023-03-17T00:48:54.319Z,990.11
2023-03-17T00:49:54.298Z,990.12
2023-03-17T00:50:54.310Z,990.09
2023-03-17T00:51:54.295Z,990.10
2023-03-17T00:52:54.252Z,990.07
2023-03-17T00:53:54.273Z,990.04
2023-03-17T00:54:54.236Z,990.08
2023-03-17T00:55:54.220Z,990.04
2023-03-17T00:56:54.195Z,990.03
2023-03-17T00:57:54.238Z,990.01
2023-03-17T00:58:54.183Z,990.01
2023-03-17T00:59:54.162Z,990.01
2023-03-17T01:00:54.149Z,990.00
2023-03-17T01:01:54.185Z,990.01
2023-03-17T01:02:54.342Z,990.01
2023-03-17T01:03:54.190Z,989.99
2023-03-17T01:05:05.417Z,989.99
2023-03-17T01:05:54.319Z,989.96
2023-03-17T01:06:54.172Z,989.98
2023-03-17T01:07:54.053Z,989.90
2023-03-17T01:08:54.044Z,989.91
2023-03-17T01:09:54.072Z,989.89
2023-03-17T01:10:54.008Z,989.89
2023-03-17T01:11:54.007Z,989.85
2023-03-17T01:12:54.024Z,989.87
2023-03-17T01:13:53.989Z,989.85
2023-03-17T01:14:53.968Z,989.80
2023-03-17T01:15:54.027Z,989.82
2023-03-17T01:16:53.953Z,989.85
2023-03-17T01:17:53.947Z,989.85
2023-03-17T01:18:53.949Z,989.87
2023-03-17T01:19:53.926Z,989.81
2023-03-17T01:20:53.886Z,989.77
2023-03-17T01:21:53.884Z,989.74
2023-03-17T01:22:53.865Z,989.71
2023-03-17T01:23:53.858Z,989.70
2023-03-17T01:24:53.831Z,989.74
2023-03-17T01:25:53.878Z,989.72
2023-03-17T01:26:53.809Z,989.72
2023-03-17T01:27:53.804Z,989.74
2023-03-17T01:28:53.774Z,989.75
2023-03-17T01:29:53.767Z,989.72
2023-03-17T01:30:53.745Z,989.71
2023-03-17T01:31:53.833Z,989.65
2023-03-17T01:32:53.860Z,989.66
2023-03-17T01:33:53.715Z,989.67
2023-03-17T01:34:53.702Z,989.62
2023-03-17T01:35:53.761Z,989.58
2023-03-17T01:36:53.678Z,989.58
2023-03-17T01:37:53.873Z,989.62
2023-03-17T01:38:53.664Z,989.56
2023-03-17T01:39:53.654Z,989.61
2023-03-17T01:40:53.618Z,989.57
2023-03-17T01:41:53.630Z,989.58
2023-03-17T01:42:53.594Z,989.57
2023-03-17T01:43:53.586Z,989.50
2023-03-17T01:44:53.567Z,989.49
2023-03-17T01:45:53.578Z,989.43
2023-03-17T01:46:53.736Z,989.41
2023-03-17T01:47:53.551Z,989.39
2023-03-17T01:48:53.743Z,989.39
2023-03-17T01:49:53.710Z,989.36
2023-03-17T01:50:53.498Z,989.36
2023-03-17T01:51:53.493Z,989.36
2023-03-17T01:52:53.465Z,989.39
2023-03-17T01:53:53.472Z,989.38
2023-03-17T01:54:53.435Z,989.34
2023-03-17T01:55:53.428Z,989.35
2023-03-17T01:56:53.407Z,989.33
2023-03-17T01:57:53.502Z,989.30
2023-03-17T01:58:53.381Z,989.32
2023-03-17T01:59:53.386Z,989.31
2023-03-17T02:00:53.584Z,989.31
2023-03-17T02:01:53.341Z,989.34
2023-03-17T02:02:53.333Z,989.38
2023-03-17T02:03:53.354Z,989.39
2023-03-17T02:04:53.306Z,989.42
2023-03-17T02:05:53.293Z,989.37
2023-03-17T02:06:58.407Z,989.36
2023-03-17T02:07:53.278Z,989.30
2023-03-17T02:08:53.264Z,989.27
2023-03-17T02:09:53.272Z,989.28
2023-03-17T02:10:53.229Z,989.29
2023-03-17T02:11:53.210Z,989.30
2023-03-17T02:12:53.353Z,989.27
2023-03-17T02:13:53.242Z,989.25
2023-03-17T02:14:53.216Z,989.25
2023-03-17T02:15:53.180Z,989.24
2023-03-17T02:16:53.247Z,989.20
2023-03-17T02:17:53.344Z,989.21
2023-03-17T02:18:53.153Z,989.16
2023-03-17T02:19:53.124Z,989.18
2023-03-17T02:20:53.090Z,989.16
2023-03-17T02:21:53.083Z,989.12
2023-03-17T02:22:53.122Z,989.15
2023-03-17T02:23:53.064Z,989.12
2023-03-17T02:24:53.081Z,989.14
2023-03-17T02:25:53.071Z,989.17
2023-03-17T02:26:53.030Z,989.16
2023-03-17T02:27:53.004Z,989.15
2023-03-17T02:28:52.989Z,989.15
2023-03-17T02:29:53.002Z,989.07
2023-03-17T02:30:53.016Z,989.11
2023-03-17T02:31:52.959Z,989.09
2023-03-17T02:32:53.005Z,989.08
2023-03-17T02:33:52.928Z,989.08
2023-03-17T02:34:52.920Z,989.04
2023-03-17T02:35:52.992Z,989.06
2023-03-17T02:36:52.953Z,989.10
2023-03-17T02:37:52.874Z,989.06
2023-03-17T02:38:52.910Z,989.06
2023-03-17T02:39:52.860Z,989.06
2023-03-17T02:40:52.835Z,989.06
2023-03-17T02:41:52.818Z,989.09
2023-03-17T02:42:52.810Z,989.05
2023-03-17T02:43:52.797Z,989.08
2023-03-17T02:44:52.783Z,989.10
2023-03-17T02:45:52.822Z,989.07
2023-03-17T02:46:52.754Z,989.04
2023-03-17T02:47:52.749Z,989.04
2023-03-17T02:48:52.735Z,989.03
2023-03-17T02:49:52.740Z,989.07
2023-03-17T02:50:52.721Z,989.08
2023-03-17T02:51:52.696Z,989.10
2023-03-17T02:52:52.693Z,989.08
2023-03-17T02:53:52.672Z,989.07
2023-03-17T02:54:52.657Z,989.09
2023-03-17T02:55:52.642Z,989.06
2023-03-17T02:56:52.634Z,989.10
2023-03-17T02:57:52.612Z,989.05
2023-03-17T02:58:52.598Z,989.04
2023-03-17T02:59:52.591Z,989.06
2023-03-17T03:00:52.573Z,989.07
2023-03-17T03:01:52.586Z,989.11
2023-03-17T03:02:52.629Z,989.12
2023-03-17T03:03:52.737Z,989.11
2023-03-17T03:04:52.549Z,989.11
2023-03-17T03:05:52.539Z,989.12
2023-03-17T03:06:52.520Z,989.12
2023-03-17T03:07:52.508Z,989.11
2023-03-17T03:08:52.519Z,989.15
2023-03-17T03:09:52.462Z,989.14
2023-03-17T03:10:52.455Z,989.14
2023-03-17T03:11:52.438Z,989.10
2023-03-17T03:12:52.429Z,989.11
2023-03-17T03:13:52.406Z,989.10
2023-03-17T03:14:52.815Z,989.09
2023-03-17T03:15:52.466Z,989.09
2023-03-17T03:16:52.377Z,989.09
2023-03-17T03:17:52.375Z,989.09
2023-03-17T03:18:52.345Z,989.12
2023-03-17T03:19:52.331Z,989.10
2023-03-17T03:20:52.315Z,989.12
2023-03-17T03:21:52.302Z,989.07
2023-03-17T03:22:52.304Z,989.11
2023-03-17T03:23:52.287Z,989.06
2023-03-17T03:24:52.266Z,989.07
2023-03-17T03:25:52.252Z,989.06
2023-03-17T03:26:52.262Z,989.05
2023-03-17T03:27:52.243Z,989.00
2023-03-17T03:28:52.265Z,989.02
2023-03-17T03:29:52.204Z,988.99
2023-03-17T03:30:52.262Z,988.98
2023-03-17T03:31:52.186Z,988.98
2023-03-17T03:32:52.213Z,988.96
2023-03-17T03:33:52.217Z,988.98
2023-03-17T03:34:52.196Z,988.96
2023-03-17T03:35:52.178Z,988.93
2023-03-17T03:36:52.109Z,988.94
2023-03-17T03:37:52.098Z,988.95
2023-03-17T03:38:52.092Z,988.91
2023-03-17T03:39:52.116Z,988.91
2023-03-17T03:40:52.070Z,988.94
2023-03-17T03:41:52.062Z,988.91
2023-03-17T03:42:52.032Z,988.91
2023-03-17T03:43:52.040Z,988.93
2023-03-17T03:44:52.000Z,988.93
2023-03-17T03:45:52.210Z,988.87
2023-03-17T03:46:52.294Z,988.88
2023-03-17T03:47:51.970Z,988.85
2023-03-17T03:48:51.939Z,988.86
2023-03-17T03:49:51.960Z,988.85
2023-03-17T03:50:51.917Z,988.81
2023-03-17T03:51:51.930Z,988.83
2023-03-17T03:52:51.890Z,988.80
2023-03-17T03:53:51.881Z,988.81
2023-03-17T03:54:51.894Z,988.73
2023-03-17T03:55:51.867Z,988.72
2023-03-17T03:56:51.850Z,988.72
2023-03-17T03:57:51.864Z,988.71
2023-03-17T03:58:51.844Z,988.74
2023-03-17T03:59:51.806Z,988.69
2023-03-17T04:00:51.787Z,988.74
2023-03-17T04:01:51.829Z,988.66
2023-03-17T04:02:51.805Z,988.73
2023-03-17T04:03:51.757Z,988.68
2023-03-17T04:04:51.796Z,988.63
2023-03-17T04:05:51.744Z,988.68
2023-03-17T04:06:51.720Z,988.74
2023-03-17T04:07:51.702Z,988.78
2023-03-17T04:08:51.687Z,988.77
2023-03-17T04:09:51.688Z,988.80
2023-03-17T04:10:51.653Z,988.80
2023-03-17T04:11:51.646Z,988.83
2023-03-17T04:12:51.626Z,988.81
2023-03-17T04:13:51.625Z,988.80
2023-03-17T04:14:51.598Z,988.71
2023-03-17T04:15:51.622Z,988.69
2023-03-17T04:16:51.589Z,988.65
2023-03-17T04:17:51.768Z,988.63
2023-03-17T04:18:51.624Z,988.65
2023-03-17T04:19:51.539Z,988.64
2023-03-17T04:20:51.557Z,988.67
2023-03-17T04:21:53.624Z,988.70
2023-03-17T04:22:51.496Z,988.66
2023-03-17T04:23:51.489Z,988.67
2023-03-17T04:24:51.472Z,988.64
2023-03-17T04:25:51.470Z,988.61
2023-03-17T04:26:51.444Z,988.58
2023-03-17T04:27:51.432Z,988.55
2023-03-17T04:28:51.449Z,988.59
2023-03-17T04:29:51.408Z,988.59
2023-03-17T04:30:51.407Z,988.59
2023-03-17T04:31:51.475Z,988.66
2023-03-17T04:32:51.436Z,988.64
2023-03-17T04:33:51.377Z,988.62
2023-03-17T04:34:51.362Z,988.66
2023-03-17T04:35:51.422Z,988.63
2023-03-17T04:36:51.307Z,988.65
2023-03-17T04:37:51.323Z,988.60
2023-03-17T04:38:51.287Z,988.62
2023-03-17T04:39:51.284Z,988.57
2023-03-17T04:40:51.259Z,988.55
2023-03-17T04:41:51.250Z,988.54
2023-03-17T04:42:51.430Z,988.61
2023-03-17T04:43:51.231Z,988.61
2023-03-17T04:44:51.219Z,988.62
2023-03-17T04:45:51.257Z,988.62
2023-03-17T04:46:51.191Z,988.60
2023-03-17T04:47:51.183Z,988.61
2023-03-17T04:48:51.168Z,988.66
2023-03-17T04:49:51.154Z,988.62
2023-03-17T04:50:51.137Z,988.66
2023-03-17T04:51:51.119Z,988.69
2023-03-17T04:52:51.100Z,988.69
2023-03-17T04:53:51.127Z,988.71
2023-03-17T04:54:51.092Z,988.65
2023-03-17T04:55:51.071Z,988.62
2023-03-17T04:56:51.051Z,988.61
2023-03-17T04:57:51.035Z,988.58
2023-03-17T04:58:51.021Z,988.59
2023-03-17T04:59:51.012Z,988.61
2023-03-17T05:00:51.225Z,988.62
2023-03-17T05:01:51.024Z,988.63
2023-03-17T05:02:50.982Z,988.68
2023-03-17T05:03:50.959Z,988.65
2023-03-17T05:04:50.957Z,988.64
2023-03-17T05:05:50.938Z,988.61
2023-03-17T05:06:50.922Z,988.59
2023-03-17T05:07:50.909Z,988.61
2023-03-17T05:08:50.888Z,988.65
2023-03-17T05:09:50.899Z,988.64
2023-03-17T05:10:51.074Z,988.64
2023-03-17T05:11:50.858Z,988.64
2023-03-17T05:12:50.840Z,988.65
2023-03-17T05:13:50.837Z,988.63
2023-03-17T05:14:50.860Z,988.68
2023-03-17T05:15:50.804Z,988.66
2023-03-17T05:16:50.874Z,988.65
2023-03-17T05:17:50.789Z,988.66
2023-03-17T05:18:50.775Z,988.64
2023-03-17T05:19:50.812Z,988.61
2023-03-17T05:20:50.746Z,988.59
2023-03-17T05:21:50.720Z,988.56
2023-03-17T05:22:50.705Z,988.50
2023-03-17T05:23:51.309Z,988.57
2023-03-17T05:24:50.726Z,988.51
2023-03-17T05:25:50.748Z,988.50
2023-03-17T05:26:50.870Z,988.51
2023-03-17T05:27:50.648Z,988.50
2023-03-17T05:28:50.636Z,988.50
2023-03-17T05:29:50.814Z,988.50
2023-03-17T05:30:50.677Z,988.53
2023-03-17T05:31:50.591Z,988.54
2023-03-17T05:32:50.629Z,988.56
2023-03-17T05:33:50.564Z,988.57
2023-03-17T05:34:50.544Z,988.55
2023-03-17T05:35:50.550Z,988.56
2023-03-17T05:36:50.580Z,988.55
2023-03-17T05:37:50.527Z,988.54
2023-03-17T05:38:50.494Z,988.48
2023-03-17T05:39:50.476Z,988.55
2023-03-17T05:40:50.476Z,988.60
2023-03-17T05:41:50.477Z,988.57
2023-03-17T05:42:50.453Z,988.57
2023-03-17T05:43:50.441Z,988.60
2023-03-17T05:44:50.416Z,988.61
2023-03-17T05:45:50.428Z,988.59
2023-03-17T05:46:50.393Z,988.61
2023-03-17T05:47:50.378Z,988.57
2023-03-17T05:48:50.370Z,988.62
2023-03-17T05:49:50.359Z,988.54
2023-03-17T05:50:50.349Z,988.50
2023-03-17T05:51:50.325Z,988.50
2023-03-17T05:52:50.306Z,988.46
2023-03-17T05:53:50.293Z,988.47
2023-03-17T05:54:50.281Z,988.47
2023-03-17T05:55:50.269Z,988.48
2023-03-17T05:56:50.266Z,988.50
2023-03-17T05:57:50.283Z,988.47
2023-03-17T05:58:50.240Z,988.51
2023-03-17T05:59:50.220Z,988.45
2023-03-17T06:00:50.209Z,988.43
2023-03-17T06:01:50.230Z,988.44
2023-03-17T06:02:50.197Z,988.48
2023-03-17T06:03:50.263Z,988.44
2023-03-17T06:04:50.383Z,988.40
2023-03-17T06:05:50.156Z,988.39
2023-03-17T06:06:50.126Z,988.38
2023-03-17T06:07:54.878Z,988.35
2023-03-17T06:08:50.144Z,988.31
2023-03-17T06:09:50.108Z,988.30
2023-03-17T06:10:50.118Z,988.30
2023-03-17T06:11:50.092Z,988.28
2023-03-17T06:12:50.093Z,988.32
2023-03-17T06:13:50.062Z,988.34
2023-03-17T06:14:50.038Z,988.32
2023-03-17T06:15:50.340Z,988.31
2023-03-17T06:16:50.034Z,988.32
2023-03-17T06:17:50.004Z,988.22
2023-03-17T06:18:49.987Z,988.14
2023-03-17T06:19:49.967Z,988.16
2023-03-17T06:20:49.979Z,988.07
2023-03-17T06:21:49.954Z,988.01
2023-03-17T06:23:03.305Z,988.01
2023-03-17T06:23:50.139Z,988.00
2023-03-17T06:24:49.960Z,988.05
2023-03-17T06:25:49.890Z,988.08
2023-03-17T06:26:49.893Z,988.14
2023-03-17T06:27:49.863Z,988.17
2023-03-17T06:28:49.850Z,988.23
2023-03-17T06:29:49.877Z,988.21
2023-03-17T06:30:49.928Z,988.33
2023-03-17T06:31:49.807Z,988.37
2023-03-17T06:32:49.859Z,988.29
2023-03-17T06:33:49.787Z,988.34
2023-03-17T06:34:49.795Z,988.35
2023-03-17T06:35:49.847Z,988.41
2023-03-17T06:36:49.746Z,988.41
2023-03-17T06:37:49.740Z,988.43
2023-03-17T06:38:49.759Z,988.46
2023-03-17T06:39:49.710Z,988.44
2023-03-17T06:40:49.722Z,988.48
2023-03-17T06:41:50.199Z,988.50
2023-03-17T06:42:49.711Z,988.49
2023-03-17T06:43:49.677Z,988.52
2023-03-17T06:44:49.711Z,988.52
2023-03-17T06:45:49.697Z,988.49
2023-03-17T06:46:49.734Z,988.45
2023-03-17T06:47:49.662Z,988.49
2023-03-17T06:48:49.648Z,988.50
2023-03-17T06:49:49.601Z,988.53
2023-03-17T06:50:49.581Z,988.50
2023-03-17T06:51:49.577Z,988.54
2023-03-17T06:52:49.561Z,988.51
2023-03-17T06:53:49.561Z,988.61
2023-03-17T06:54:49.560Z,988.61
2023-03-17T06:55:49.761Z,988.69
2023-03-17T06:56:49.540Z,988.90
2023-03-17T06:57:51.222Z,988.98
2023-03-17T06:58:49.505Z,989.23
2023-03-17T06:59:49.479Z,989.25
2023-03-17T07:00:49.462Z,989.26
2023-03-17T07:01:49.795Z,989.24
2023-03-17T07:02:49.485Z,989.12
2023-03-17T07:03:49.447Z,988.92
2023-03-17T07:04:49.539Z,988.81
2023-03-17T07:05:49.429Z,988.74
2023-03-17T07:06:49.442Z,988.72
2023-03-17T07:07:49.469Z,988.68
2023-03-17T07:08:49.409Z,988.62
2023-03-17T07:09:49.433Z,988.61
2023-03-17T07:10:49.409Z,988.67
2023-03-17T07:11:49.375Z,988.66
2023-03-17T07:12:49.433Z,988.68
2023-03-17T07:13:49.353Z,989.01
2023-03-17T07:14:49.370Z,989.31
2023-03-17T07:15:49.429Z,989.17
2023-03-17T07:16:49.470Z,988.90
2023-03-17T07:17:49.405Z,988.78
2023-03-17T07:18:49.331Z,988.76
2023-03-17T07:19:49.381Z,988.84
2023-03-17T07:20:49.345Z,988.84
2023-03-17T07:21:49.335Z,988.83
2023-03-17T07:22:49.368Z,988.82
2023-03-17T07:23:49.307Z,988.97
2023-03-17T07:24:49.458Z,988.95
2023-03-17T07:25:49.330Z,989.01
2023-03-17T07:26:49.288Z,988.97
2023-03-17T07:27:49.275Z,988.96
2023-03-17T07:28:49.272Z,988.87
2023-03-17T07:29:49.325Z,988.92
2023-03-17T07:30:49.288Z,988.88
2023-03-17T07:31:49.364Z,988.87
2023-03-17T07:32:49.423Z,988.82
2023-03-17T07:33:49.464Z,988.81
2023-03-17T07:34:49.250Z,988.76
2023-03-17T07:35:49.272Z,988.68
2023-03-17T07:36:49.234Z,988.64
2023-03-17T07:37:49.228Z,988.58
2023-03-17T07:38:49.243Z,988.61
2023-03-17T07:39:49.223Z,988.58
2023-03-17T07:40:49.203Z,988.84
2023-03-17T07:41:49.211Z,988.95
2023-03-17T07:42:49.213Z,988.95
2023-03-17T07:43:49.388Z,988.84
2023-03-17T07:44:49.177Z,988.82
2023-03-17T07:45:49.236Z,988.74
2023-03-17T07:46:49.223Z,988.66
2023-03-17T07:47:49.179Z,988.62
2023-03-17T07:48:49.195Z,988.65
2023-03-17T07:49:49.223Z,988.59
2023-03-17T07:50:49.209Z,988.60
2023-03-17T07:51:49.148Z,988.58
2023-03-17T07:52:49.176Z,988.52
2023-03-17T07:53:49.186Z,988.63
2023-03-17T07:54:49.133Z,988.51
2023-03-17T07:55:49.149Z,988.53
2023-03-17T07:56:49.341Z,988.48
2023-03-17T07:57:49.204Z,988.58
2023-03-17T07:58:49.146Z,988.49
2023-03-17T07:59:49.164Z,988.52
2023-03-17T08:00:49.123Z,988.53
2023-03-17T08:01:49.385Z,988.53
2023-03-17T08:03:03.150Z,988.62
2023-03-17T08:03:49.533Z,988.63
2023-03-17T08:04:49.124Z,988.58
2023-03-17T08:05:49.361Z,988.60
2023-03-17T08:06:49.096Z,988.64
2023-03-17T08:07:49.075Z,988.63
2023-03-17T08:08:49.094Z,988.64
2023-03-17T08:09:49.088Z,988.67
2023-03-17T08:10:49.073Z,988.67
2023-03-17T08:11:49.063Z,988.62
2023-03-17T08:12:49.052Z,988.64
2023-03-17T08:13:49.065Z,988.53
2023-03-17T08:14:49.086Z,988.48
2023-03-17T08:15:49.041Z,988.45
2023-03-17T08:16:49.115Z,988.44
2023-03-17T08:17:49.050Z,988.45
2023-03-17T08:18:49.019Z,988.42
2023-03-17T08:19:49.043Z,988.40
2023-03-17T08:20:49.006Z,988.48
2023-03-17T08:21:49.039Z,988.36
2023-03-17T08:22:49.036Z,988.39
2023-03-17T08:23:48.994Z,988.41
2023-03-17T08:24:49.023Z,988.35
2023-03-17T08:25:48.962Z,988.49
2023-03-17T08:26:49.049Z,988.36
2023-03-17T08:27:49.047Z,988.41
2023-03-17T08:28:49.175Z,988.44
2023-03-17T08:29:49.041Z,988.42
2023-03-17T08:30:50.566Z,988.39
2023-03-17T08:31:49.037Z,988.45
2023-03-17T08:32:49.051Z,988.42
2023-03-17T08:33:48.925Z,988.44
2023-03-17T08:34:48.928Z,988.44
2023-03-17T08:35:48.923Z,988.43
2023-03-17T08:36:48.957Z,988.40
2023-03-17T08:37:48.947Z,988.44
2023-03-17T08:38:48.890Z,988.46
2023-03-17T08:39:48.890Z,988.44
2023-03-17T08:40:48.875Z,988.44
2023-03-17T08:41:48.865Z,988.42
2023-03-17T08:42:48.848Z,988.40
2023-03-17T08:43:48.883Z,988.50
2023-03-17T08:44:48.887Z,988.42
2023-03-17T08:45:48.913Z,988.44
2023-03-17T08:46:48.899Z,988.49
2023-03-17T08:47:48.865Z,988.42
2023-03-17T08:48:48.816Z,988.45
2023-03-17T08:49:48.841Z,988.43
2023-03-17T08:50:48.810Z,988.44
2023-03-17T08:51:48.803Z,988.44
2023-03-17T08:52:48.855Z,988.43
2023-03-17T08:53:48.863Z,988.43
2023-03-17T08:54:48.852Z,988.44
2023-03-17T08:55:48.796Z,988.41
2023-03-17T08:56:48.783Z,988.39
2023-03-17T08:57:48.773Z,988.35
2023-03-17T08:58:48.782Z,988.41
2023-03-17T08:59:48.772Z,988.36
2023-03-17T09:00:48.757Z,988.45
2023-03-17T09:01:48.858Z,988.45
2023-03-17T09:02:48.831Z,988.40
2023-03-17T09:03:48.765Z,988.41
2023-03-17T09:04:48.733Z,988.34
2023-03-17T09:05:48.759Z,988.40
2023-03-17T09:07:02.308Z,988.35
2023-03-17T09:07:48.742Z,988.36
2023-03-17T09:08:48.708Z,988.38
2023-03-17T09:09:48.754Z,988.33
2023-03-17T09:10:48.721Z,988.35
2023-03-17T09:11:48.718Z,988.35
2023-03-17T09:12:48.692Z,988.37
2023-03-17T09:13:48.674Z,988.45
2023-03-17T09:14:49.386Z,988.38
2023-03-17T09:15:50.120Z,988.33
2023-03-17T09:16:48.677Z,988.35
2023-03-17T09:17:48.666Z,988.36
2023-03-17T09:18:48.669Z,988.38
2023-03-17T09:19:48.659Z,988.37
2023-03-17T09:20:48.653Z,988.30
2023-03-17T09:21:48.645Z,988.29
2023-03-17T09:22:48.635Z,988.33
2023-03-17T09:23:48.858Z,988.33
2023-03-17T09:24:48.626Z,988.32
2023-03-17T09:25:48.636Z,988.32
2023-03-17T09:26:48.636Z,988.33
2023-03-17T09:27:48.619Z,988.35
2023-03-17T09:28:48.630Z,988.37
2023-03-17T09:29:48.677Z,988.36
2023-03-17T09:30:48.639Z,988.42
2023-03-17T09:31:48.611Z,988.40
2023-03-17T09:32:48.710Z,988.46
2023-03-17T09:33:48.598Z,988.47
2023-03-17T09:34:51.024Z,988.45
2023-03-17T09:35:48.669Z,988.50
2023-03-17T09:36:48.553Z,988.47
2023-03-17T09:37:48.599Z,988.38
2023-03-17T09:38:48.543Z,988.36
2023-03-17T09:39:48.584Z,988.31
2023-03-17T09:40:48.549Z,988.28
2023-03-17T09:41:48.538Z,988.25
2023-03-17T09:42:48.544Z,988.24
2023-03-17T09:43:48.530Z,988.24
2023-03-17T09:44:48.550Z,988.14
2023-03-17T09:45:48.546Z,988.16
2023-03-17T09:46:48.608Z,988.14
2023-03-17T09:47:48.567Z,988.10
2023-03-17T09:48:48.503Z,988.11
2023-03-17T09:49:48.524Z,988.17
2023-03-17T09:50:48.476Z,988.12
2023-03-17T09:51:48.490Z,988.08
2023-03-17T09:52:51.317Z,988.09
2023-03-17T09:53:48.503Z,988.10
2023-03-17T09:54:48.675Z,988.14
2023-03-17T09:55:48.440Z,988.10
2023-03-17T09:56:48.438Z,988.08
2023-03-17T09:57:48.673Z,988.09
2023-03-17T09:58:51.055Z,988.15
2023-03-17T09:59:48.434Z,988.09
2023-03-17T10:00:48.423Z,988.06
2023-03-17T10:01:48.424Z,988.10
2023-03-17T10:02:48.601Z,988.06
2023-03-17T10:03:48.409Z,988.02
2023-03-17T10:04:48.444Z,988.05
2023-03-17T10:05:48.472Z,988.04
2023-03-17T10:06:48.371Z,988.03
2023-03-17T10:07:48.348Z,988.03
2023-03-17T10:08:48.355Z,987.98
2023-03-17T10:09:48.589Z,987.95
2023-03-17T10:10:48.346Z,988.02
2023-03-17T10:11:48.330Z,987.93
2023-03-17T10:12:48.327Z,987.96
2023-03-17T10:13:48.356Z,987.99
2023-03-17T10:14:51.064Z,988.05
2023-03-17T10:15:48.376Z,987.97
2023-03-17T10:16:48.304Z,987.94
2023-03-17T10:17:48.281Z,987.87
2023-03-17T10:18:48.278Z,987.88
2023-03-17T10:19:48.270Z,987.81
2023-03-17T10:20:50.468Z,987.83
2023-03-17T10:21:48.286Z,987.84
2023-03-17T10:22:48.237Z,987.85
2023-03-17T10:23:48.239Z,987.90
2023-03-17T10:24:48.238Z,987.94
2023-03-17T10:25:48.220Z,987.87
2023-03-17T10:26:48.232Z,987.91
2023-03-17T10:27:48.209Z,987.91
2023-03-17T10:28:48.225Z,987.85
2023-03-17T10:29:48.712Z,987.85
2023-03-17T10:30:48.186Z,987.84
2023-03-17T10:31:48.212Z,987.78
2023-03-17T10:32:48.294Z,987.77
2023-03-17T10:33:48.168Z,987.70
2023-03-17T10:34:48.171Z,987.69
2023-03-17T10:35:48.266Z,987.75
2023-03-17T10:36:48.136Z,987.68
2023-03-17T10:37:48.142Z,987.68
2023-03-17T10:38:48.144Z,987.70
2023-03-17T10:39:48.136Z,987.64
2023-03-17T10:40:48.148Z,987.64
2023-03-17T10:41:48.108Z,987.65
2023-03-17T10:42:48.116Z,987.69
2023-03-17T10:43:48.298Z,987.72
2023-03-17T10:44:48.087Z,987.73
2023-03-17T10:45:48.101Z,987.69
2023-03-17T10:46:48.090Z,987.71
2023-03-17T10:47:48.083Z,987.73
2023-03-17T10:48:48.054Z,987.72
2023-03-17T10:49:48.078Z,987.75
2023-03-17T10:50:49.595Z,987.66
2023-03-17T10:51:48.064Z,987.68
2023-03-17T10:52:48.046Z,987.70
2023-03-17T10:53:48.044Z,987.63
2023-03-17T10:54:48.006Z,987.65
2023-03-17T10:55:48.026Z,987.57
2023-03-17T10:56:47.995Z,987.56
2023-03-17T10:57:48.008Z,987.47
2023-03-17T10:58:47.996Z,987.46
2023-03-17T10:59:47.984Z,987.44
2023-03-17T11:00:48.030Z,987.55
2023-03-17T11:01:48.184Z,987.39
2023-03-17T11:02:47.990Z,987.42
2023-03-17T11:03:47.999Z,987.40
2023-03-17T11:04:47.963Z,987.38
2023-03-17T11:05:47.952Z,987.41
2023-03-17T11:06:47.942Z,987.39
2023-03-17T11:07:47.947Z,987.40
2023-03-17T11:08:47.945Z,987.47
2023-03-17T11:09:47.913Z,987.49
2023-03-17T11:10:47.925Z,987.43
2023-03-17T11:11:47.902Z,987.46
2023-03-17T11:12:48.074Z,987.44
2023-03-17T11:13:47.886Z,987.50
2023-03-17T11:14:47.871Z,987.52
2023-03-17T11:15:47.865Z,987.52
2023-03-17T11:16:47.921Z,987.50
2023-03-17T11:17:47.871Z,987.46
2023-03-17T11:18:47.838Z,987.49
2023-03-17T11:19:48.041Z,987.44
2023-03-17T11:20:47.865Z,987.43
2023-03-17T11:21:47.852Z,987.40
2023-03-17T11:22:47.817Z,987.41
2023-03-17T11:23:48.064Z,987.39
2023-03-17T11:24:47.804Z,987.34
2023-03-17T11:25:47.796Z,987.26
2023-03-17T11:26:47.803Z,987.23
2023-03-17T11:27:47.833Z,987.24
2023-03-17T11:28:47.782Z,987.23
2023-03-17T11:29:47.791Z,987.22
2023-03-17T11:30:47.805Z,987.21
2023-03-17T11:31:47.890Z,987.22
2023-03-17T11:32:47.878Z,987.23
2023-03-17T11:33:47.781Z,987.16
2023-03-17T11:34:47.749Z,987.19
2023-03-17T11:35:47.780Z,987.18
2023-03-17T11:36:47.747Z,987.20
2023-03-17T11:37:47.748Z,987.18
2023-03-17T11:38:47.711Z,987.20
2023-03-17T11:39:47.751Z,987.17
2023-03-17T11:40:47.703Z,987.16
2023-03-17T11:41:47.704Z,987.19
2023-03-17T11:42:47.676Z,987.18
2023-03-17T11:43:47.685Z,987.16
2023-03-17T11:44:47.678Z,987.12
2023-03-17T11:45:47.777Z,987.08
2023-03-17T11:46:47.657Z,987.09
2023-03-17T11:47:47.659Z,987.10
2023-03-17T11:48:47.658Z,987.09
2023-03-17T11:49:47.661Z,987.06
2023-03-17T11:50:47.628Z,987.01
2023-03-17T11:51:47.631Z,987.00
2023-03-17T11:52:47.619Z,987.01
2023-03-17T11:53:47.660Z,986.98
2023-03-17T11:54:47.606Z,987.02
2023-03-17T11:55:47.629Z,986.96
2023-03-17T11:56:47.626Z,986.95
2023-03-17T11:57:47.596Z,987.00
2023-03-17T11:58:47.572Z,986.92
2023-03-17T11:59:47.571Z,986.91
2023-03-17T12:00:47.958Z,986.93
2023-03-17T12:01:47.558Z,986.92
2023-03-17T12:02:47.544Z,986.91
2023-03-17T12:03:47.663Z,986.91
2023-03-17T12:04:47.545Z,986.93
2023-03-17T12:05:47.583Z,986.95
2023-03-17T12:06:47.515Z,986.92
2023-03-17T12:07:47.506Z,986.91
2023-03-17T12:08:47.520Z,986.92
2023-03-17T12:09:47.493Z,986.91
2023-03-17T12:10:47.493Z,986.91
2023-03-17T12:11:47.493Z,986.94
2023-03-17T12:12:47.492Z,986.91
2023-03-17T12:13:47.476Z,986.95
2023-03-17T12:14:47.479Z,986.90
2023-03-17T12:15:47.555Z,986.89
2023-03-17T12:16:47.510Z,986.86
2023-03-17T12:17:47.457Z,986.89
2023-03-17T12:18:47.488Z,986.87
2023-03-17T12:19:47.437Z,986.89
2023-03-17T12:20:47.417Z,986.82
2023-03-17T12:21:47.453Z,986.86
2023-03-17T12:22:47.839Z,986.84
2023-03-17T12:23:47.409Z,986.81
2023-03-17T12:24:47.429Z,986.85
2023-03-17T12:25:47.411Z,986.82
2023-03-17T12:26:47.633Z,986.86
2023-03-17T12:27:47.390Z,986.84
2023-03-17T12:28:47.363Z,986.83